createdAt,value
2022-11-27T00:00:47.600Z,48.82
2022-11-27T00:01:48.123Z,50.92
2022-11-27T00:02:47.745Z,49.79
2022-11-27T00:03:47.644Z,49.31
2022-11-27T00:04:48.208Z,49.47
2022-11-27T00:05:47.575Z,49.63
2022-11-27T00:06:47.559Z,51.40
2022-11-27T00:07:47.617Z,50.92
2022-11-27T00:08:47.572Z,47.70
2022-11-27T00:09:47.547Z,48.50
2022-11-27T00:10:47.563Z,50.43
2022-11-27T00:11:47.748Z,52.37
2022-11-27T00:12:47.518Z,51.40
2022-11-27T00:13:47.554Z,49.31
2022-11-27T00:14:47.512Z,49.47
2022-11-27T00:15:47.587Z,47.86
2022-11-27T00:16:47.511Z,48.66
2022-11-27T00:17:47.525Z,48.82
2022-11-27T00:18:47.491Z,47.05
2022-11-27T00:19:47.489Z,49.95
2022-11-27T00:20:47.463Z,53.82
2022-11-27T00:21:47.560Z,53.50
2022-11-27T00:22:47.467Z,49.15
2022-11-27T00:23:47.455Z,50.27
2022-11-27T00:24:47.448Z,45.60
2022-11-27T00:25:47.458Z,46.73
2022-11-27T00:26:47.440Z,48.82
2022-11-27T00:27:47.423Z,53.50
2022-11-27T00:28:47.432Z,57.20
2022-11-27T00:29:47.459Z,63.00
2022-11-27T00:30:47.465Z,44.96
2022-11-27T00:31:47.575Z,48.34
2022-11-27T00:32:47.477Z,49.15
2022-11-27T00:33:47.435Z,48.66
2022-11-27T00:34:48.386Z,50.76
2022-11-27T00:35:47.437Z,47.37
2022-11-27T00:36:48.443Z,46.89
2022-11-27T00:37:47.370Z,61.55
2022-11-27T00:38:47.384Z,65.90
2022-11-27T00:39:47.349Z,48.02
2022-11-27T00:40:47.383Z,64.13
2022-11-27T00:41:47.335Z,50.92
2022-11-27T00:42:47.854Z,65.42
2022-11-27T00:43:47.329Z,54.14
2022-11-27T00:44:47.335Z,44.79
2022-11-27T00:45:48.001Z,49.95
2022-11-27T00:46:48.199Z,46.89
2022-11-27T00:47:47.294Z,50.60
2022-11-27T00:48:47.334Z,49.95
2022-11-27T00:49:47.359Z,49.15
2022-11-27T00:50:47.298Z,50.92
2022-11-27T00:51:47.320Z,44.96
2022-11-27T00:52:47.286Z,49.15
2022-11-27T00:53:47.271Z,50.92
2022-11-27T00:54:47.283Z,51.56
2022-11-27T00:55:47.253Z,47.53
2022-11-27T00:56:47.245Z,46.08
2022-11-27T00:57:47.255Z,52.37
2022-11-27T00:58:47.232Z,53.17
2022-11-27T00:59:47.219Z,51.88
2022-11-27T01:00:47.234Z,47.53
2022-11-27T01:01:47.305Z,46.41
2022-11-27T01:02:47.290Z,46.25
2022-11-27T01:03:47.209Z,48.18
2022-11-27T01:04:47.237Z,54.62
2022-11-27T01:05:47.214Z,65.90
2022-11-27T01:06:47.346Z,61.55
2022-11-27T01:07:47.226Z,46.89
2022-11-27T01:08:47.181Z,46.89
2022-11-27T01:09:47.166Z,49.95
2022-11-27T01:10:51.965Z,47.53
2022-11-27T01:11:49.098Z,44.15
2022-11-27T01:12:47.157Z,47.21
2022-11-27T01:13:47.135Z,46.73
2022-11-27T01:14:47.217Z,47.70
2022-11-27T01:15:47.177Z,46.57
2022-11-27T01:16:47.122Z,45.76
2022-11-27T01:17:47.128Z,46.25
2022-11-27T01:18:47.104Z,48.50
2022-11-27T01:19:47.089Z,47.05
2022-11-27T01:20:47.110Z,48.98
2022-11-27T01:21:47.098Z,46.89
2022-11-27T01:22:47.090Z,45.28
2022-11-27T01:23:47.077Z,46.41
2022-11-27T01:24:47.735Z,48.66
2022-11-27T01:25:47.059Z,46.89
2022-11-27T01:26:47.056Z,51.56
2022-11-27T01:27:47.090Z,47.37
2022-11-27T01:28:48.197Z,51.24
2022-11-27T01:29:47.020Z,45.12
2022-11-27T01:30:47.206Z,47.70
2022-11-27T01:31:47.102Z,48.02
2022-11-27T01:32:47.048Z,46.08
2022-11-27T01:33:47.061Z,53.66
2022-11-27T01:34:46.998Z,51.24
2022-11-27T01:35:46.993Z,51.40
2022-11-27T01:36:47.007Z,48.18
2022-11-27T01:37:46.998Z,51.56
2022-11-27T01:38:46.983Z,45.76
2022-11-27T01:39:46.981Z,44.79
2022-11-27T01:40:46.951Z,45.92
2022-11-27T01:41:47.372Z,45.76
2022-11-27T01:42:46.952Z,45.28
2022-11-27T01:43:46.969Z,48.02
2022-11-27T01:44:46.926Z,47.21
2022-11-27T01:45:46.933Z,43.99
2022-11-27T01:46:47.386Z,43.67
2022-11-27T01:47:46.900Z,45.28
2022-11-27T01:48:46.915Z,48.02
2022-11-27T01:49:46.912Z,47.37
2022-11-27T01:50:46.910Z,45.44
2022-11-27T01:51:46.930Z,44.63
2022-11-27T01:52:47.062Z,46.41
2022-11-27T01:53:48.411Z,45.12
2022-11-27T01:54:46.857Z,43.67
2022-11-27T01:55:46.851Z,44.31
2022-11-27T01:56:46.980Z,46.08
2022-11-27T01:57:46.843Z,45.28
2022-11-27T01:58:46.831Z,48.98
2022-11-27T01:59:46.821Z,45.44
2022-11-27T02:00:46.862Z,46.73
2022-11-27T02:01:47.000Z,47.53
2022-11-27T02:02:49.825Z,47.05
2022-11-27T02:03:46.808Z,47.05
2022-11-27T02:04:46.799Z,47.53
2022-11-27T02:05:46.830Z,48.66
2022-11-27T02:06:46.785Z,45.28
2022-11-27T02:07:46.853Z,47.70
2022-11-27T02:08:46.786Z,44.96
2022-11-27T02:09:46.790Z,45.12
2022-11-27T02:10:46.771Z,47.05
2022-11-27T02:11:46.769Z,45.76
2022-11-27T02:12:46.742Z,45.28
2022-11-27T02:13:46.737Z,47.70
2022-11-27T02:14:46.750Z,46.73
2022-11-27T02:15:46.804Z,46.08
2022-11-27T02:16:46.807Z,52.53
2022-11-27T02:17:46.731Z,48.50
2022-11-27T02:18:46.751Z,47.21
2022-11-27T02:19:46.713Z,51.88
2022-11-27T02:20:46.701Z,49.95
2022-11-27T02:21:46.775Z,48.66
2022-11-27T02:22:46.692Z,50.76
2022-11-27T02:23:46.683Z,49.15
2022-11-27T02:24:46.664Z,49.95
2022-11-27T02:25:47.389Z,52.69
2022-11-27T02:26:46.661Z,51.56
2022-11-27T02:27:46.633Z,48.66
2022-11-27T02:28:46.650Z,45.76
2022-11-27T02:29:46.649Z,47.37
2022-11-27T02:30:46.656Z,60.42
2022-11-27T02:31:47.043Z,48.34
2022-11-27T02:32:46.617Z,45.28
2022-11-27T02:33:46.617Z,42.54
2022-11-27T02:34:46.625Z,45.28
2022-11-27T02:35:46.625Z,49.47
2022-11-27T02:36:46.578Z,49.15
2022-11-27T02:37:46.611Z,51.72
2022-11-27T02:38:46.567Z,47.70
2022-11-27T02:39:46.613Z,49.95
2022-11-27T02:40:46.609Z,46.25
2022-11-27T02:41:46.568Z,44.31
2022-11-27T02:42:47.777Z,43.67
2022-11-27T02:43:46.563Z,45.28
2022-11-27T02:44:46.525Z,46.41
2022-11-27T02:45:46.529Z,47.70
2022-11-27T02:46:46.970Z,48.98
2022-11-27T02:47:46.551Z,46.89
2022-11-27T02:48:46.503Z,47.05
2022-11-27T02:49:46.516Z,47.70
2022-11-27T02:50:46.493Z,53.01
2022-11-27T02:51:46.512Z,46.73
2022-11-27T02:52:46.500Z,48.82
2022-11-27T02:53:49.436Z,52.05
2022-11-27T02:54:46.511Z,48.02
2022-11-27T02:55:46.481Z,48.98
2022-11-27T02:56:47.086Z,45.44
2022-11-27T02:57:46.476Z,48.98
2022-11-27T02:58:46.558Z,48.18
2022-11-27T02:59:46.462Z,50.11
2022-11-27T03:00:46.444Z,48.18
2022-11-27T03:01:46.496Z,45.12
2022-11-27T03:02:46.523Z,48.50
2022-11-27T03:03:46.428Z,50.43
2022-11-27T03:04:46.424Z,51.88
2022-11-27T03:05:46.409Z,46.89
2022-11-27T03:06:46.467Z,47.70
2022-11-27T03:07:46.483Z,46.89
2022-11-27T03:08:46.375Z,50.43
2022-11-27T03:09:46.395Z,44.96
2022-11-27T03:10:47.322Z,51.88
2022-11-27T03:11:46.400Z,51.24
2022-11-27T03:12:46.603Z,50.43
2022-11-27T03:13:46.372Z,49.63
2022-11-27T03:14:46.497Z,46.57
2022-11-27T03:15:46.473Z,54.95
2022-11-27T03:16:46.322Z,51.56
2022-11-27T03:17:46.338Z,49.47
2022-11-27T03:18:46.623Z,49.47
2022-11-27T03:19:46.333Z,51.40
2022-11-27T03:20:46.306Z,54.14
2022-11-27T03:21:46.314Z,51.08
2022-11-27T03:22:46.290Z,44.96
2022-11-27T03:23:46.301Z,50.92
2022-11-27T03:24:46.284Z,49.95
2022-11-27T03:25:46.277Z,49.95
2022-11-27T03:26:46.281Z,61.23
2022-11-27T03:27:46.265Z,68.00
2022-11-27T03:28:46.271Z,67.35
2022-11-27T03:29:49.359Z,49.31
2022-11-27T03:30:46.352Z,49.79
2022-11-27T03:31:46.313Z,46.89
2022-11-27T03:32:46.262Z,44.15
2022-11-27T03:33:48.063Z,47.70
2022-11-27T03:34:46.225Z,47.21
2022-11-27T03:35:46.195Z,48.66
2022-11-27T03:36:46.218Z,50.43
2022-11-27T03:37:46.192Z,49.31
2022-11-27T03:38:46.226Z,67.19
2022-11-27T03:39:46.192Z,70.42
2022-11-27T03:40:46.236Z,54.46
2022-11-27T03:41:46.168Z,44.31
2022-11-27T03:42:46.168Z,43.99
2022-11-27T03:43:46.139Z,48.66
2022-11-27T03:44:46.187Z,48.82
2022-11-27T03:45:46.127Z,48.18
2022-11-27T03:46:46.320Z,47.53
2022-11-27T03:47:46.205Z,49.31
2022-11-27T03:48:46.133Z,48.34
2022-11-27T03:49:46.105Z,52.53
2022-11-27T03:50:46.112Z,49.47
2022-11-27T03:51:46.099Z,47.86
2022-11-27T03:52:46.100Z,47.53
2022-11-27T03:53:46.607Z,49.95
2022-11-27T03:54:46.718Z,54.95
2022-11-27T03:55:46.066Z,48.18
2022-11-27T03:56:46.112Z,48.34
2022-11-27T03:57:46.058Z,48.50
2022-11-27T03:58:46.054Z,44.96
2022-11-27T03:59:46.054Z,44.15
2022-11-27T04:00:46.788Z,44.96
2022-11-27T04:01:46.111Z,46.89
2022-11-27T04:02:52.447Z,48.82
2022-11-27T04:03:47.224Z,54.30
2022-11-27T04:04:46.021Z,52.37
2022-11-27T04:05:46.026Z,45.60
2022-11-27T04:06:46.012Z,49.47
2022-11-27T04:07:46.037Z,49.31
2022-11-27T04:08:46.005Z,52.85
2022-11-27T04:09:45.986Z,47.70
2022-11-27T04:10:45.987Z,50.92
2022-11-27T04:11:45.979Z,48.98
2022-11-27T04:12:45.972Z,49.15
2022-11-27T04:13:45.959Z,48.02
2022-11-27T04:14:46.172Z,51.40
2022-11-27T04:15:45.997Z,49.79
2022-11-27T04:16:45.960Z,50.92
2022-11-27T04:17:45.934Z,46.57
2022-11-27T04:18:45.936Z,50.27
2022-11-27T04:19:46.040Z,46.57
2022-11-27T04:20:45.974Z,49.95
2022-11-27T04:21:45.899Z,50.11
2022-11-27T04:22:45.898Z,49.47
2022-11-27T04:23:46.811Z,47.86
2022-11-27T04:24:45.890Z,50.60
2022-11-27T04:25:45.898Z,48.98
2022-11-27T04:26:45.887Z,50.92
2022-11-27T04:27:45.860Z,50.43
2022-11-27T04:28:48.117Z,44.79
2022-11-27T04:29:45.845Z,57.52
2022-11-27T04:30:46.335Z,51.56
2022-11-27T04:31:45.901Z,47.37
2022-11-27T04:32:45.838Z,49.15
2022-11-27T04:33:45.834Z,50.60
2022-11-27T04:34:45.850Z,52.21
2022-11-27T04:35:45.948Z,47.37
2022-11-27T04:36:47.151Z,48.98
2022-11-27T04:37:45.804Z,54.79
2022-11-27T04:38:45.814Z,53.17
2022-11-27T04:39:45.843Z,52.53
2022-11-27T04:40:45.784Z,53.01
2022-11-27T04:41:45.789Z,64.94
2022-11-27T04:42:46.383Z,45.44
2022-11-27T04:43:45.774Z,46.25
2022-11-27T04:44:45.770Z,46.73
2022-11-27T04:45:45.758Z,49.31
2022-11-27T04:46:45.802Z,49.95
2022-11-27T04:47:46.484Z,55.59
2022-11-27T04:48:45.753Z,48.34
2022-11-27T04:49:45.735Z,49.47
2022-11-27T04:50:45.739Z,53.50
2022-11-27T04:51:46.493Z,50.76
2022-11-27T04:52:45.712Z,50.76
2022-11-27T04:53:45.755Z,48.82
2022-11-27T04:54:45.716Z,49.95
2022-11-27T04:55:45.682Z,47.86
2022-11-27T04:56:45.687Z,47.70
2022-11-27T04:57:48.938Z,47.53
2022-11-27T04:58:45.658Z,44.31
2022-11-27T04:59:45.656Z,48.02
2022-11-27T05:00:45.677Z,50.60
2022-11-27T05:01:45.649Z,46.89
2022-11-27T05:02:45.797Z,50.27
2022-11-27T05:03:45.645Z,49.15
2022-11-27T05:04:45.669Z,49.79
2022-11-27T05:05:45.604Z,49.31
2022-11-27T05:06:45.599Z,48.02
2022-11-27T05:07:45.788Z,50.60
2022-11-27T05:08:45.603Z,53.17
2022-11-27T05:09:45.604Z,45.92
2022-11-27T05:10:45.575Z,46.73
2022-11-27T05:11:45.591Z,48.18
2022-11-27T05:12:45.570Z,49.15
2022-11-27T05:13:45.563Z,46.73
2022-11-27T05:14:45.581Z,46.08
2022-11-27T05:15:45.633Z,51.40
2022-11-27T05:16:45.558Z,48.34
2022-11-27T05:17:45.522Z,50.76
2022-11-27T05:18:45.523Z,49.47
2022-11-27T05:19:45.544Z,48.98
2022-11-27T05:20:45.523Z,48.02
2022-11-27T05:21:45.531Z,48.02
2022-11-27T05:22:45.523Z,50.76
2022-11-27T05:23:45.595Z,51.24
2022-11-27T05:24:46.408Z,53.17
2022-11-27T05:25:45.526Z,55.59
2022-11-27T05:26:45.495Z,48.98
2022-11-27T05:27:45.453Z,44.63
2022-11-27T05:28:45.855Z,46.41
2022-11-27T05:29:45.451Z,47.53
2022-11-27T05:30:45.440Z,48.98
2022-11-27T05:31:45.463Z,48.50
2022-11-27T05:32:45.434Z,46.73
2022-11-27T05:33:45.437Z,48.66
2022-11-27T05:34:45.433Z,47.05
2022-11-27T05:35:45.408Z,64.61
2022-11-27T05:36:45.432Z,48.18
2022-11-27T05:37:45.394Z,45.76
2022-11-27T05:38:45.415Z,48.98
2022-11-27T05:39:45.505Z,68.00
2022-11-27T05:40:45.384Z,55.59
2022-11-27T05:41:45.400Z,47.53
2022-11-27T05:42:45.380Z,48.02
2022-11-27T05:43:45.953Z,48.34
2022-11-27T05:44:45.368Z,54.30
2022-11-27T05:45:45.337Z,66.23
2022-11-27T05:46:45.444Z,45.12
2022-11-27T05:47:45.340Z,48.50
2022-11-27T05:48:45.330Z,45.60
2022-11-27T05:49:45.338Z,47.05
2022-11-27T05:50:45.339Z,66.87
2022-11-27T05:51:50.937Z,69.77
2022-11-27T05:52:46.316Z,52.37
2022-11-27T05:53:45.281Z,47.53
2022-11-27T05:54:46.769Z,45.92
2022-11-27T05:55:46.005Z,46.41
2022-11-27T05:56:45.292Z,47.05
2022-11-27T05:57:45.320Z,47.21
2022-11-27T05:58:45.286Z,48.66
2022-11-27T05:59:45.263Z,47.53
2022-11-27T06:00:45.266Z,48.82
2022-11-27T06:01:45.557Z,46.41
2022-11-27T06:02:45.386Z,46.57
2022-11-27T06:03:45.326Z,49.95
2022-11-27T06:04:45.251Z,49.31
2022-11-27T06:05:45.216Z,48.34
2022-11-27T06:06:45.228Z,48.18
2022-11-27T06:07:45.284Z,47.05
2022-11-27T06:08:45.389Z,47.37
2022-11-27T06:09:45.205Z,49.63
2022-11-27T06:10:45.250Z,51.24
2022-11-27T06:11:45.296Z,50.11
2022-11-27T06:12:45.170Z,49.95
2022-11-27T06:13:45.413Z,48.18
2022-11-27T06:14:45.196Z,49.15
2022-11-27T06:15:45.152Z,49.31
2022-11-27T06:16:45.241Z,45.44
2022-11-27T06:17:45.133Z,49.47
2022-11-27T06:18:45.148Z,51.24
2022-11-27T06:19:47.226Z,63.33
2022-11-27T06:20:50.216Z,50.92
2022-11-27T06:21:46.124Z,51.72
2022-11-27T06:22:45.127Z,49.79
2022-11-27T06:23:45.129Z,50.60
2022-11-27T06:24:45.092Z,47.53
2022-11-27T06:25:45.098Z,48.50
2022-11-27T06:26:45.089Z,70.74
2022-11-27T06:27:45.208Z,62.84
2022-11-27T06:28:45.065Z,50.76
2022-11-27T06:29:45.066Z,47.86
2022-11-27T06:30:45.362Z,49.47
2022-11-27T06:31:45.093Z,51.56
2022-11-27T06:32:45.050Z,50.43
2022-11-27T06:33:45.057Z,49.95
2022-11-27T06:34:45.038Z,49.63
2022-11-27T06:35:45.064Z,49.79
2022-11-27T06:36:45.022Z,47.70
2022-11-27T06:37:45.023Z,48.82
2022-11-27T06:39:06.020Z,48.66
2022-11-27T06:39:45.003Z,46.08
2022-11-27T06:40:45.026Z,47.70
2022-11-27T06:41:44.997Z,48.50
2022-11-27T06:42:44.982Z,46.57
2022-11-27T06:43:45.178Z,47.70
2022-11-27T06:44:45.436Z,49.95
2022-11-27T06:45:45.721Z,51.24
2022-11-27T06:46:44.965Z,48.66
2022-11-27T06:47:44.944Z,56.88
2022-11-27T06:48:44.949Z,50.92
2022-11-27T06:49:44.952Z,50.27
2022-11-27T06:50:44.974Z,47.70
2022-11-27T06:51:44.925Z,50.92
2022-11-27T06:52:45.404Z,50.60
2022-11-27T06:53:44.896Z,49.79
2022-11-27T06:54:46.131Z,49.15
2022-11-27T06:55:44.885Z,49.79
2022-11-27T06:56:44.900Z,50.92
2022-11-27T06:57:45.286Z,52.85
2022-11-27T06:58:44.936Z,51.88
2022-11-27T06:59:44.988Z,53.17
2022-11-27T07:00:44.947Z,50.60
2022-11-27T07:01:44.921Z,56.56
2022-11-27T07:02:44.865Z,54.79
2022-11-27T07:03:44.859Z,51.88
2022-11-27T07:04:45.276Z,51.24
2022-11-27T07:05:44.817Z,53.82
2022-11-27T07:06:44.836Z,54.62
2022-11-27T07:07:45.248Z,51.56
2022-11-27T07:08:44.821Z,51.08
2022-11-27T07:09:44.811Z,51.40
2022-11-27T07:10:44.819Z,54.46
2022-11-27T07:11:44.798Z,53.66
2022-11-27T07:12:46.278Z,53.98
2022-11-27T07:13:44.771Z,51.56
2022-11-27T07:14:44.794Z,56.07
2022-11-27T07:15:44.890Z,53.66
2022-11-27T07:16:44.851Z,55.91
2022-11-27T07:17:44.750Z,55.91
2022-11-27T07:18:44.765Z,54.46
2022-11-27T07:19:44.767Z,58.81
2022-11-27T07:20:44.834Z,52.05
2022-11-27T07:21:44.732Z,53.66
2022-11-27T07:22:44.719Z,54.30
2022-11-27T07:23:44.721Z,51.08
2022-11-27T07:24:44.711Z,54.62
2022-11-27T07:25:44.689Z,53.66
2022-11-27T07:26:45.367Z,53.66
2022-11-27T07:27:44.689Z,53.01
2022-11-27T07:28:44.700Z,53.01
2022-11-27T07:29:45.982Z,59.14
2022-11-27T07:30:44.742Z,68.80
2022-11-27T07:31:44.805Z,56.40
2022-11-27T07:32:44.669Z,55.75
2022-11-27T07:33:44.665Z,55.27
2022-11-27T07:34:44.637Z,57.04
2022-11-27T07:35:44.639Z,54.62
2022-11-27T07:36:45.955Z,55.75
2022-11-27T07:37:44.626Z,56.40
2022-11-27T07:38:44.638Z,56.40
2022-11-27T07:40:01.870Z,53.17
2022-11-27T07:40:45.615Z,53.66
2022-11-27T07:41:45.339Z,62.36
2022-11-27T07:42:44.591Z,55.27
2022-11-27T07:43:44.591Z,71.54
2022-11-27T07:44:44.577Z,61.23
2022-11-27T07:45:44.589Z,59.78
2022-11-27T07:46:44.996Z,55.75
2022-11-27T07:47:44.671Z,60.75
2022-11-27T07:48:44.569Z,53.33
2022-11-27T07:49:44.552Z,55.59
2022-11-27T07:50:44.538Z,52.53
2022-11-27T07:51:44.534Z,53.17
2022-11-27T07:52:44.531Z,53.98
2022-11-27T07:53:44.506Z,53.01
2022-11-27T07:54:44.537Z,52.05
2022-11-27T07:55:44.499Z,57.69
2022-11-27T07:56:44.508Z,56.24
2022-11-27T07:57:44.496Z,56.40
2022-11-27T07:58:44.563Z,53.01
2022-11-27T07:59:47.448Z,55.59
2022-11-27T08:00:44.582Z,53.33
2022-11-27T08:01:44.459Z,55.11
2022-11-27T08:02:44.468Z,55.59
2022-11-27T08:03:44.575Z,54.62
2022-11-27T08:04:44.822Z,56.07
2022-11-27T08:05:44.429Z,56.88
2022-11-27T08:06:44.445Z,54.30
2022-11-27T08:07:44.499Z,53.17
2022-11-27T08:08:44.454Z,56.07
2022-11-27T08:09:44.440Z,55.43
2022-11-27T08:10:44.418Z,53.82
2022-11-27T08:11:44.405Z,53.33
2022-11-27T08:12:44.394Z,55.91
2022-11-27T08:13:44.376Z,57.85
2022-11-27T08:14:44.417Z,58.17
2022-11-27T08:15:44.368Z,53.98
2022-11-27T08:16:44.419Z,63.33
2022-11-27T08:17:44.445Z,53.98
2022-11-27T08:18:44.356Z,53.98
2022-11-27T08:19:44.457Z,52.85
2022-11-27T08:20:44.358Z,55.75
2022-11-27T08:21:44.336Z,58.81
2022-11-27T08:22:44.365Z,55.59
2022-11-27T08:23:44.681Z,55.43
2022-11-27T08:24:44.316Z,57.20
2022-11-27T08:25:44.298Z,67.51
2022-11-27T08:26:44.314Z,54.79
2022-11-27T08:27:44.291Z,55.43
2022-11-27T08:28:44.605Z,55.11
2022-11-27T08:29:44.300Z,53.17
2022-11-27T08:30:44.275Z,56.56
2022-11-27T08:31:44.514Z,58.17
2022-11-27T08:32:44.282Z,53.98
2022-11-27T08:33:44.246Z,54.62
2022-11-27T08:34:44.267Z,54.14
2022-11-27T08:35:44.378Z,56.88
2022-11-27T08:36:45.036Z,54.95
2022-11-27T08:37:44.231Z,54.30
2022-11-27T08:38:44.252Z,63.33
2022-11-27T08:39:45.299Z,52.53
2022-11-27T08:40:44.237Z,51.24
2022-11-27T08:41:44.207Z,53.17
2022-11-27T08:42:44.194Z,54.62
2022-11-27T08:43:44.210Z,53.33
2022-11-27T08:44:44.205Z,53.98
2022-11-27T08:45:44.263Z,54.14
2022-11-27T08:46:44.195Z,54.62
2022-11-27T08:47:44.168Z,55.75
2022-11-27T08:48:44.603Z,55.11
2022-11-27T08:49:46.232Z,54.62
2022-11-27T08:50:44.141Z,56.88
2022-11-27T08:51:45.501Z,55.43
2022-11-27T08:52:44.147Z,59.78
2022-11-27T08:53:44.123Z,54.79
2022-11-27T08:54:44.131Z,53.01
2022-11-27T08:55:44.105Z,52.21
2022-11-27T08:56:44.136Z,54.14
2022-11-27T08:57:44.112Z,55.59
2022-11-27T08:58:44.096Z,57.85
2022-11-27T08:59:44.091Z,55.75
2022-11-27T09:00:44.141Z,54.14
2022-11-27T09:01:44.064Z,55.75
2022-11-27T09:02:44.912Z,60.10
2022-11-27T09:03:51.200Z,52.37
2022-11-27T09:04:44.192Z,53.66
2022-11-27T09:05:45.481Z,52.85
2022-11-27T09:06:44.049Z,53.50
2022-11-27T09:07:44.247Z,53.17
2022-11-27T09:09:06.211Z,55.27
2022-11-27T09:09:44.033Z,56.07
2022-11-27T09:10:44.004Z,57.20
2022-11-27T09:11:44.003Z,53.98
2022-11-27T09:12:44.008Z,54.95
2022-11-27T09:13:44.000Z,58.17
2022-11-27T09:14:43.992Z,57.85
2022-11-27T09:15:43.986Z,53.50
2022-11-27T09:16:43.980Z,55.11
2022-11-27T09:17:43.964Z,60.91
2022-11-27T09:18:43.974Z,58.97
2022-11-27T09:19:43.945Z,53.33
2022-11-27T09:20:44.026Z,54.14
2022-11-27T09:21:43.935Z,54.14
2022-11-27T09:22:47.925Z,53.17
2022-11-27T09:23:43.975Z,56.40
2022-11-27T09:24:43.930Z,55.75
2022-11-27T09:25:43.904Z,59.94
2022-11-27T09:26:43.918Z,63.81
2022-11-27T09:27:43.920Z,60.91
2022-11-27T09:28:44.941Z,54.14
2022-11-27T09:29:43.888Z,56.07
2022-11-27T09:30:43.877Z,59.94
2022-11-27T09:31:43.885Z,55.11
2022-11-27T09:32:43.871Z,54.46
2022-11-27T09:33:45.734Z,54.62
2022-11-27T09:34:44.322Z,52.37
2022-11-27T09:35:44.114Z,54.14
2022-11-27T09:36:43.826Z,53.98
2022-11-27T09:37:43.826Z,54.79
2022-11-27T09:38:43.956Z,58.81
2022-11-27T09:39:43.813Z,54.95
2022-11-27T09:40:43.802Z,62.20
2022-11-27T09:42:04.810Z,64.78
2022-11-27T09:42:43.835Z,55.43
2022-11-27T09:43:43.865Z,56.40
2022-11-27T09:44:43.963Z,53.66
2022-11-27T09:45:43.838Z,54.46
2022-11-27T09:46:43.765Z,54.95
2022-11-27T09:47:44.335Z,57.04
2022-11-27T09:48:44.437Z,54.46
2022-11-27T09:49:43.763Z,53.66
2022-11-27T09:50:43.727Z,53.50
2022-11-27T09:51:43.708Z,53.33
2022-11-27T09:52:44.588Z,53.33
2022-11-27T09:53:44.839Z,56.56
2022-11-27T09:54:48.045Z,57.69
2022-11-27T09:55:44.719Z,59.94
2022-11-27T09:56:43.682Z,55.59
2022-11-27T09:57:43.689Z,54.79
2022-11-27T09:58:43.673Z,52.85
2022-11-27T09:59:43.649Z,54.79
2022-11-27T10:00:43.668Z,55.59
2022-11-27T10:01:49.319Z,64.13
2022-11-27T10:02:45.552Z,56.07
2022-11-27T10:03:43.638Z,63.33
2022-11-27T10:05:05.689Z,63.00
2022-11-27T10:05:44.630Z,57.85
2022-11-27T10:06:43.607Z,54.79
2022-11-27T10:07:43.773Z,56.07
2022-11-27T10:08:43.880Z,55.59
2022-11-27T10:09:43.591Z,54.62
2022-11-27T10:10:43.706Z,59.62
2022-11-27T10:11:43.573Z,63.49
2022-11-27T10:12:43.575Z,54.14
2022-11-27T10:13:46.630Z,54.30
2022-11-27T10:14:44.203Z,56.72
2022-11-27T10:15:43.976Z,61.71
2022-11-27T10:16:44.816Z,63.33
2022-11-27T10:17:43.582Z,54.95
2022-11-27T10:18:43.522Z,57.36
2022-11-27T10:19:43.569Z,54.95
2022-11-27T10:20:43.557Z,56.07
2022-11-27T10:21:43.490Z,55.59
2022-11-27T10:22:43.529Z,58.33
2022-11-27T10:23:43.503Z,58.49
2022-11-27T10:24:43.525Z,57.85
2022-11-27T10:25:44.573Z,61.71
2022-11-27T10:26:43.593Z,58.33
2022-11-27T10:27:44.135Z,56.72
2022-11-27T10:28:43.517Z,58.49
2022-11-27T10:29:48.951Z,57.20
2022-11-27T10:30:44.455Z,55.75
2022-11-27T10:31:43.486Z,54.14
2022-11-27T10:32:59.016Z,54.62
2022-11-27T10:33:44.407Z,55.91
2022-11-27T10:34:43.736Z,55.91
2022-11-27T10:35:43.408Z,52.85
2022-11-27T10:36:43.398Z,53.98
2022-11-27T10:37:44.322Z,55.43
2022-11-27T10:38:43.374Z,54.62
2022-11-27T10:39:43.388Z,55.27
2022-11-27T10:40:43.380Z,66.23
2022-11-27T10:41:50.605Z,61.39
2022-11-27T10:42:44.957Z,56.56
2022-11-27T10:43:43.335Z,57.36
2022-11-27T10:44:43.703Z,59.62
2022-11-27T10:45:43.418Z,62.36
2022-11-27T10:46:43.338Z,63.81
2022-11-27T10:47:43.324Z,58.17
2022-11-27T10:48:43.309Z,62.68
2022-11-27T10:49:43.316Z,70.42
2022-11-27T10:50:43.300Z,57.52
2022-11-27T10:51:43.279Z,55.75
2022-11-27T10:52:45.186Z,58.33
2022-11-27T10:53:43.265Z,63.65
2022-11-27T10:54:43.747Z,61.23
2022-11-27T10:55:43.261Z,63.49
2022-11-27T10:56:43.260Z,66.71
2022-11-27T10:57:43.244Z,78.15
2022-11-27T10:58:43.355Z,68.80
2022-11-27T10:59:43.275Z,65.90
2022-11-27T11:00:43.263Z,56.24
2022-11-27T11:01:43.334Z,60.26
2022-11-27T11:02:43.237Z,59.94
2022-11-27T11:03:43.200Z,63.97
2022-11-27T11:04:43.199Z,57.52
2022-11-27T11:06:17.823Z,55.59
2022-11-27T11:06:44.191Z,55.59
2022-11-27T11:07:43.227Z,55.11
2022-11-27T11:08:43.157Z,55.75
2022-11-27T11:09:43.185Z,55.75
2022-11-27T11:10:43.138Z,61.39
2022-11-27T11:11:43.194Z,66.23
2022-11-27T11:12:43.139Z,62.68
2022-11-27T11:13:43.143Z,57.52
2022-11-27T11:14:43.307Z,56.56
2022-11-27T11:15:43.165Z,60.26
2022-11-27T11:16:43.141Z,55.75
2022-11-27T11:17:43.099Z,56.72
2022-11-27T11:18:43.139Z,58.33
2022-11-27T11:19:43.103Z,59.14
2022-11-27T11:20:43.070Z,56.07
2022-11-27T11:21:43.096Z,55.75
2022-11-27T11:22:43.055Z,59.78
2022-11-27T11:23:43.055Z,67.84
2022-11-27T11:24:43.899Z,58.01
2022-11-27T11:25:43.046Z,56.24
2022-11-27T11:26:43.055Z,58.01
2022-11-27T11:27:43.042Z,59.30
2022-11-27T11:28:43.018Z,58.81
2022-11-27T11:29:43.018Z,61.71
2022-11-27T11:30:43.138Z,58.33
2022-11-27T11:31:43.113Z,57.36
2022-11-27T11:32:42.989Z,59.62
2022-11-27T11:33:43.001Z,62.52
2022-11-27T11:35:03.989Z,58.81
2022-11-27T11:35:43.027Z,58.01
2022-11-27T11:36:43.270Z,60.26
2022-11-27T11:37:42.958Z,60.75
2022-11-27T11:38:42.954Z,56.88
2022-11-27T11:39:42.959Z,59.94
2022-11-27T11:40:42.926Z,62.68
2022-11-27T11:41:44.135Z,63.00
2022-11-27T11:42:42.916Z,61.23
2022-11-27T11:43:42.919Z,63.33
2022-11-27T11:44:43.122Z,64.29
2022-11-27T11:45:42.970Z,58.33
2022-11-27T11:46:43.016Z,59.94
2022-11-27T11:47:42.886Z,57.52
2022-11-27T11:48:42.883Z,57.85
2022-11-27T11:49:42.909Z,60.59
2022-11-27T11:50:42.866Z,59.62
2022-11-27T11:51:43.783Z,58.81
2022-11-27T11:52:42.839Z,60.10
2022-11-27T11:53:42.846Z,66.71
2022-11-27T11:54:43.128Z,61.55
2022-11-27T11:55:42.828Z,67.03
2022-11-27T11:56:43.527Z,61.39
2022-11-27T11:57:42.817Z,59.14
2022-11-27T11:58:42.819Z,58.49
2022-11-27T11:59:45.395Z,60.10
2022-11-27T12:01:04.823Z,59.62
2022-11-27T12:01:44.591Z,59.30
2022-11-27T12:02:42.942Z,57.04
2022-11-27T12:03:42.792Z,61.07
2022-11-27T12:04:43.280Z,64.45
2022-11-27T12:05:42.769Z,59.94
2022-11-27T12:06:42.768Z,60.10
2022-11-27T12:07:45.311Z,60.91
2022-11-27T12:08:43.744Z,65.42
2022-11-27T12:09:42.763Z,62.36
2022-11-27T12:10:42.719Z,58.65
2022-11-27T12:11:42.720Z,60.42
2022-11-27T12:12:42.708Z,59.62
2022-11-27T12:13:42.703Z,59.78
2022-11-27T12:14:43.035Z,58.33
2022-11-27T12:15:42.679Z,63.33
2022-11-27T12:16:43.208Z,58.97
2022-11-27T12:17:42.675Z,60.91
2022-11-27T12:18:42.802Z,59.14
2022-11-27T12:19:42.650Z,59.30
2022-11-27T12:20:42.666Z,57.85
2022-11-27T12:21:42.640Z,60.42
2022-11-27T12:22:42.740Z,56.24
2022-11-27T12:23:42.632Z,57.85
2022-11-27T12:24:43.097Z,58.81
2022-11-27T12:25:42.620Z,58.01
2022-11-27T12:26:42.622Z,60.42
2022-11-27T12:27:42.622Z,57.85
2022-11-27T12:28:42.608Z,58.81
2022-11-27T12:29:42.580Z,58.33
2022-11-27T12:30:42.596Z,58.97
2022-11-27T12:31:42.692Z,56.72
2022-11-27T12:32:42.575Z,55.11
2022-11-27T12:33:42.552Z,71.70
2022-11-27T12:34:42.981Z,59.62
2022-11-27T12:35:42.545Z,58.01
2022-11-27T12:36:42.537Z,57.04
2022-11-27T12:37:42.535Z,57.85
2022-11-27T12:38:43.090Z,56.40
2022-11-27T12:39:42.510Z,60.75
2022-11-27T12:40:42.523Z,57.52
2022-11-27T12:41:42.510Z,61.23
2022-11-27T12:42:42.485Z,63.33
2022-11-27T12:43:42.504Z,56.72
2022-11-27T12:44:42.798Z,55.91
2022-11-27T12:45:43.176Z,57.85
2022-11-27T12:46:42.509Z,56.72
2022-11-27T12:47:42.448Z,55.59
2022-11-27T12:48:42.456Z,55.91
2022-11-27T12:49:42.445Z,54.79
2022-11-27T12:50:42.563Z,55.91
2022-11-27T12:51:42.449Z,64.61
2022-11-27T12:52:42.431Z,60.42